sensor_id;sensor_type;location;lat;lon;timestamp;pressure;altitude;pressure_sealevel;temperature;humidity
11672;BME280;5892;43.412;24.612;2023-02-21T00:02:31;100194.03;;;8.88;58.75
11672;BME280;5892;43.412;24.612;2023-02-21T00:05:17;100171.25;;;8.92;59.02
11672;BME280;5892;43.412;24.612;2023-02-21T00:08:01;100173.47;;;8.90;59.00
11672;BME280;5892;43.412;24.612;2023-02-21T00:10:45;100155.75;;;8.74;59.32
11672;BME280;5892;43.412;24.612;2023-02-21T00:13:30;100140.78;;;8.72;58.96
11672;BME280;5892;43.412;24.612;2023-02-21T00:16:15;100161.81;;;8.85;58.92
11672;BME280;5892;43.412;24.612;2023-02-21T00:19:00;100164.88;;;8.83;59.09
11672;BME280;5892;43.412;24.612;2023-02-21T00:21:45;100159.22;;;8.93;58.87
11672;BME280;5892;43.412;24.612;2023-02-21T00:24:29;100152.44;;;9.05;58.22
11672;BME280;5892;43.412;24.612;2023-02-21T00:27:14;100151.28;;;9.06;58.13
11672;BME280;5892;43.412;24.612;2023-02-21T00:29:58;100152.81;;;9.12;57.96
11672;BME280;5892;43.412;24.612;2023-02-21T00:32:43;100157.59;;;9.20;57.20
11672;BME280;5892;43.412;24.612;2023-02-21T00:35:27;100127.72;;;9.10;57.38
11672;BME280;5892;43.412;24.612;2023-02-21T00:38:13;100125.91;;;9.19;57.42
11672;BME280;5892;43.412;24.612;2023-02-21T00:40:57;100136.22;;;9.22;57.37
11672;BME280;5892;43.412;24.612;2023-02-21T00:43:41;100124.69;;;9.25;57.16
11672;BME280;5892;43.412;24.612;2023-02-21T00:46:26;100105.31;;;9.21;57.20
11672;BME280;5892;43.412;24.612;2023-02-21T00:49:10;100126.56;;;9.38;56.98
11672;BME280;5892;43.412;24.612;2023-02-21T00:51:55;100114.81;;;9.38;56.92
11672;BME280;5892;43.412;24.612;2023-02-21T00:54:41;100108.22;;;9.39;56.94
11672;BME280;5892;43.412;24.612;2023-02-21T00:57:25;100109.22;;;9.43;56.91
11672;BME280;5892;43.412;24.612;2023-02-21T01:00:15;100101.84;;;9.43;56.89
11672;BME280;5892;43.412;24.612;2023-02-21T01:02:59;100095.44;;;9.48;56.55
11672;BME280;5892;43.412;24.612;2023-02-21T01:05:43;100096.47;;;9.52;56.95
11672;BME280;5892;43.412;24.612;2023-02-21T01:08:28;100087.56;;;9.46;56.41
11672;BME280;5892;43.412;24.612;2023-02-21T01:11:15;100101.38;;;9.63;56.36
11672;BME280;5892;43.412;24.612;2023-02-21T01:14:00;100092.25;;;9.68;56.32
11672;BME280;5892;43.412;24.612;2023-02-21T01:16:44;100092.63;;;9.75;55.99
11672;BME280;5892;43.412;24.612;2023-02-21T01:19:29;100079.31;;;9.82;55.72
11672;BME280;5892;43.412;24.612;2023-02-21T01:22:13;100076.41;;;9.78;55.81
11672;BME280;5892;43.412;24.612;2023-02-21T01:24:58;100081.94;;;9.87;55.72
11672;BME280;5892;43.412;24.612;2023-02-21T01:27:43;100080.63;;;9.85;55.49
11672;BME280;5892;43.412;24.612;2023-02-21T01:30:28;100092.81;;;9.78;55.95
11672;BME280;5892;43.412;24.612;2023-02-21T01:33:12;100085.22;;;9.75;55.85
11672;BME280;5892;43.412;24.612;2023-02-21T01:35:57;100075.63;;;9.64;55.99
11672;BME280;5892;43.412;24.612;2023-02-21T01:38:41;100078.25;;;9.69;56.31
11672;BME280;5892;43.412;24.612;2023-02-21T01:41:26;100080.69;;;9.71;56.31
11672;BME280;5892;43.412;24.612;2023-02-21T01:44:33;100056.50;;;9.64;55.92
11672;BME280;5892;43.412;24.612;2023-02-21T01:47:18;100070.25;;;9.73;56.25
11672;BME280;5892;43.412;24.612;2023-02-21T01:50:12;100068.97;;;9.79;55.90
11672;BME280;5892;43.412;24.612;2023-02-21T01:52:58;100062.34;;;9.71;55.97
11672;BME280;5892;43.412;24.612;2023-02-21T01:55:43;100019.06;;;9.51;56.15
11672;BME280;5892;43.412;24.612;2023-02-21T01:58:29;100021.81;;;9.51;56.21
11672;BME280;5892;43.412;24.612;2023-02-21T02:01:22;100044.19;;;9.75;56.26
11672;BME280;5892;43.412;24.612;2023-02-21T02:04:08;100039.22;;;9.77;56.02
11672;BME280;5892;43.412;24.612;2023-02-21T02:06:52;100043.56;;;9.78;56.18
11672;BME280;5892;43.412;24.612;2023-02-21T02:09:36;100039.38;;;9.81;56.19
11672;BME280;5892;43.412;24.612;2023-02-21T02:12:55;100041.81;;;9.83;56.28
11672;BME280;5892;43.412;24.612;2023-02-21T02:15:44;100024.28;;;9.61;56.68
11672;BME280;5892;43.412;24.612;2023-02-21T02:18:39;100038.44;;;9.63;56.68
11672;BME280;5892;43.412;24.612;2023-02-21T02:27:40;100041.31;;;9.81;56.16
11672;BME280;5892;43.412;24.612;2023-02-21T02:30:39;100058.78;;;9.71;56.42
11672;BME280;5892;43.412;24.612;2023-02-21T02:36:12;100044.56;;;9.83;55.85
11672;BME280;5892;43.412;24.612;2023-02-21T02:38:49;100025.16;;;9.70;55.83
11672;BME280;5892;43.412;24.612;2023-02-21T02:41:22;100014.63;;;9.64;56.10
11672;BME280;5892;43.412;24.612;2023-02-21T02:43:53;100038.09;;;9.78;55.72
11672;BME280;5892;43.412;24.612;2023-02-21T02:46:23;100013.94;;;9.81;55.27
11672;BME280;5892;43.412;24.612;2023-02-21T02:48:56;99995.44;;;9.55;55.57
11672;BME280;5892;43.412;24.612;2023-02-21T02:51:27;100029.25;;;9.82;55.87
11672;BME280;5892;43.412;24.612;2023-02-21T02:53:54;100032.81;;;9.82;55.62
11672;BME280;5892;43.412;24.612;2023-02-21T02:56:21;100028.44;;;9.81;55.63
11672;BME280;5892;43.412;24.612;2023-02-21T02:58:53;100028.50;;;9.90;55.29
11672;BME280;5892;43.412;24.612;2023-02-21T03:01:44;100035.78;;;9.94;55.11
11672;BME280;5892;43.412;24.612;2023-02-21T03:04:37;100010.47;;;9.89;54.90
11672;BME280;5892;43.412;24.612;2023-02-21T03:07:16;100035.53;;;10.04;54.53
11672;BME280;5892;43.412;24.612;2023-02-21T03:09:52;100036.31;;;10.05;54.48
11672;BME280;5892;43.412;24.612;2023-02-21T03:12:30;100036.81;;;10.07;54.66
11672;BME280;5892;43.412;24.612;2023-02-21T03:15:02;100046.00;;;10.11;54.16
11672;BME280;5892;43.412;24.612;2023-02-21T03:17:33;100038.56;;;10.03;54.64
11672;BME280;5892;43.412;24.612;2023-02-21T03:20:04;100035.81;;;10.03;54.50
11672;BME280;5892;43.412;24.612;2023-02-21T03:22:34;100029.59;;;10.11;54.58
11672;BME280;5892;43.412;24.612;2023-02-21T03:25:01;100021.34;;;10.02;54.50
11672;BME280;5892;43.412;24.612;2023-02-21T03:27:30;100039.91;;;10.14;54.10
11672;BME280;5892;43.412;24.612;2023-02-21T03:30:02;100035.88;;;10.11;54.16
11672;BME280;5892;43.412;24.612;2023-02-21T03:32:32;99988.13;;;9.95;53.62
11672;BME280;5892;43.412;24.612;2023-02-21T03:34:59;100032.41;;;10.19;53.57
11672;BME280;5892;43.412;24.612;2023-02-21T03:37:30;100026.94;;;10.19;53.77
11672;BME280;5892;43.412;24.612;2023-02-21T03:39:59;99998.63;;;10.02;53.56
11672;BME280;5892;43.412;24.612;2023-02-21T03:42:26;100010.41;;;10.11;54.00
11672;BME280;5892;43.412;24.612;2023-02-21T03:44:53;100023.38;;;10.19;53.73
11672;BME280;5892;43.412;24.612;2023-02-21T03:47:20;100021.25;;;10.16;54.09
11672;BME280;5892;43.412;24.612;2023-02-21T03:49:47;100025.13;;;10.15;54.06
11672;BME280;5892;43.412;24.612;2023-02-21T03:52:14;100025.78;;;10.20;53.80
11672;BME280;5892;43.412;24.612;2023-02-21T03:54:41;100035.47;;;10.18;53.95
11672;BME280;5892;43.412;24.612;2023-02-21T03:57:09;100033.09;;;10.25;53.55
11672;BME280;5892;43.412;24.612;2023-02-21T03:59:36;100030.97;;;10.22;53.88
11672;BME280;5892;43.412;24.612;2023-02-21T04:02:03;100039.72;;;10.10;54.09
11672;BME280;5892;43.412;24.612;2023-02-21T04:04:30;100020.53;;;10.02;53.99
11672;BME280;5892;43.412;24.612;2023-02-21T04:06:56;100028.88;;;10.19;54.00
11672;BME280;5892;43.412;24.612;2023-02-21T04:09:23;100016.50;;;9.99;54.20
11672;BME280;5892;43.412;24.612;2023-02-21T04:11:51;100028.97;;;10.14;53.96
11672;BME280;5892;43.412;24.612;2023-02-21T04:14:19;100025.25;;;10.10;54.42
11672;BME280;5892;43.412;24.612;2023-02-21T04:16:46;100015.88;;;10.11;54.03
11672;BME280;5892;43.412;24.612;2023-02-21T04:19:13;100026.03;;;10.10;54.21
11672;BME280;5892;43.412;24.612;2023-02-21T04:21:40;100003.16;;;10.06;54.14
11672;BME280;5892;43.412;24.612;2023-02-21T04:24:07;100017.34;;;10.08;54.37
11672;BME280;5892;43.412;24.612;2023-02-21T04:26:34;100004.22;;;9.97;54.14
11672;BME280;5892;43.412;24.612;2023-02-21T04:29:01;100006.09;;;10.10;54.16
11672;BME280;5892;43.412;24.612;2023-02-21T04:31:30;100003.22;;;10.15;54.00
11672;BME280;5892;43.412;24.612;2023-02-21T04:33:57;99949.53;;;9.74;54.10
11672;BME280;5892;43.412;24.612;2023-02-21T04:36:24;100000.47;;;10.15;53.99
11672;BME280;5892;43.412;24.612;2023-02-21T04:38:52;99998.41;;;10.20;53.81
11672;BME280;5892;43.412;24.612;2023-02-21T04:41:19;99998.41;;;10.20;53.91
11672;BME280;5892;43.412;24.612;2023-02-21T04:43:46;99993.88;;;10.16;54.09
11672;BME280;5892;43.412;24.612;2023-02-21T04:46:14;99975.88;;;9.93;54.09
11672;BME280;5892;43.412;24.612;2023-02-21T04:48:44;99985.44;;;10.04;54.15
11672;BME280;5892;43.412;24.612;2023-02-21T04:51:11;99985.78;;;10.11;54.57
11672;BME280;5892;43.412;24.612;2023-02-21T04:53:38;99982.94;;;10.16;54.06
11672;BME280;5892;43.412;24.612;2023-02-21T04:56:05;99941.03;;;9.85;54.50
11672;BME280;5892;43.412;24.612;2023-02-21T04:58:32;99981.75;;;10.08;54.47
11672;BME280;5892;43.412;24.612;2023-02-21T05:00:59;100001.59;;;10.14;54.13
11672;BME280;5892;43.412;24.612;2023-02-21T05:03:26;99975.22;;;10.18;53.88
11672;BME280;5892;43.412;24.612;2023-02-21T05:05:54;99967.50;;;10.20;54.10
11672;BME280;5892;43.412;24.612;2023-02-21T05:08:21;99961.38;;;10.23;53.79
11672;BME280;5892;43.412;24.612;2023-02-21T05:10:49;99953.31;;;10.18;53.81
11672;BME280;5892;43.412;24.612;2023-02-21T05:13:16;99963.19;;;10.28;53.49
11672;BME280;5892;43.412;24.612;2023-02-21T05:15:43;99939.13;;;10.16;53.79
11672;BME280;5892;43.412;24.612;2023-02-21T05:18:10;99956.88;;;10.27;53.57
11672;BME280;5892;43.412;24.612;2023-02-21T05:20:36;99958.66;;;10.23;53.88
11672;BME280;5892;43.412;24.612;2023-02-21T05:23:05;99938.84;;;10.26;53.77
11672;BME280;5892;43.412;24.612;2023-02-21T05:25:31;99910.28;;;10.10;53.21
11672;BME280;5892;43.412;24.612;2023-02-21T05:27:58;99954.06;;;10.49;52.70
11672;BME280;5892;43.412;24.612;2023-02-21T05:30:25;99961.03;;;10.64;52.14
11672;BME280;5892;43.412;24.612;2023-02-21T05:32:52;99957.16;;;10.56;52.79
11672;BME280;5892;43.412;24.612;2023-02-21T05:35:19;99966.69;;;10.68;52.45
11672;BME280;5892;43.412;24.612;2023-02-21T05:37:46;99969.59;;;10.71;52.33
11672;BME280;5892;43.412;24.612;2023-02-21T05:40:14;99917.19;;;10.55;52.50
11672;BME280;5892;43.412;24.612;2023-02-21T05:42:42;99937.81;;;10.70;51.70
11672;BME280;5892;43.412;24.612;2023-02-21T05:45:09;99959.78;;;11.04;51.49
11672;BME280;5892;43.412;24.612;2023-02-21T05:47:37;99966.09;;;11.22;51.01
11672;BME280;5892;43.412;24.612;2023-02-21T05:50:05;99968.66;;;11.44;50.44
11672;BME280;5892;43.412;24.612;2023-02-21T05:52:32;99963.81;;;11.76;49.79
11672;BME280;5892;43.412;24.612;2023-02-21T05:54:58;99958.06;;;12.07;48.69
11672;BME280;5892;43.412;24.612;2023-02-21T05:57:27;99964.25;;;12.33;47.82
11672;BME280;5892;43.412;24.612;2023-02-21T05:59:53;99953.19;;;12.50;46.87
11672;BME280;5892;43.412;24.612;2023-02-21T06:02:20;99958.28;;;12.60;46.66
11672;BME280;5892;43.412;24.612;2023-02-21T06:04:47;99961.66;;;12.66;46.88
11672;BME280;5892;43.412;24.612;2023-02-21T06:07:15;99966.56;;;12.81;46.23
11672;BME280;5892;43.412;24.612;2023-02-21T06:09:43;99962.91;;;12.98;45.76
11672;BME280;5892;43.412;24.612;2023-02-21T06:12:09;99967.88;;;13.25;45.13
11672;BME280;5892;43.412;24.612;2023-02-21T06:14:38;99969.78;;;13.45;44.53
11672;BME280;5892;43.412;24.612;2023-02-21T06:17:04;99963.75;;;13.52;44.51
11672;BME280;5892;43.412;24.612;2023-02-21T06:19:31;99963.63;;;13.48;44.49
11672;BME280;5892;43.412;24.612;2023-02-21T06:21:58;99965.78;;;13.43;44.64
11672;BME280;5892;43.412;24.612;2023-02-21T06:24:25;99967.13;;;13.37;44.83
11672;BME280;5892;43.412;24.612;2023-02-21T06:26:52;99968.84;;;13.62;44.16
11672;BME280;5892;43.412;24.612;2023-02-21T06:29:19;99870.53;;;13.18;43.80
11672;BME280;5892;43.412;24.612;2023-02-21T06:31:47;99980.44;;;14.00;43.31
11672;BME280;5892;43.412;24.612;2023-02-21T06:34:14;99969.88;;;14.03;43.28
11672;BME280;5892;43.412;24.612;2023-02-21T06:36:42;99974.81;;;13.97;43.08
11672;BME280;5892;43.412;24.612;2023-02-21T06:39:09;99962.47;;;13.82;43.22
11672;BME280;5892;43.412;24.612;2023-02-21T06:41:37;99961.28;;;13.71;43.67
11672;BME280;5892;43.412;24.612;2023-02-21T06:44:04;99967.31;;;13.85;43.55
11672;BME280;5892;43.412;24.612;2023-02-21T06:46:31;99968.22;;;13.89;43.40
11672;BME280;5892;43.412;24.612;2023-02-21T06:49:02;99974.38;;;14.19;42.96
11672;BME280;5892;43.412;24.612;2023-02-21T06:51:33;99965.78;;;14.33;42.49
11672;BME280;5892;43.412;24.612;2023-02-21T06:54:00;99955.91;;;14.32;42.22
11672;BME280;5892;43.412;24.612;2023-02-21T06:56:27;99947.84;;;14.15;42.38
11672;BME280;5892;43.412;24.612;2023-02-21T06:58:54;99986.03;;;14.37;41.99
11672;BME280;5892;43.412;24.612;2023-02-21T07:01:21;99962.44;;;14.27;42.23
11672;BME280;5892;43.412;24.612;2023-02-21T07:03:48;99961.75;;;14.30;42.30
11672;BME280;5892;43.412;24.612;2023-02-21T07:06:16;99943.75;;;14.45;41.75
11672;BME280;5892;43.412;24.612;2023-02-21T07:08:43;99933.63;;;14.61;41.34
11672;BME280;5892;43.412;24.612;2023-02-21T07:11:11;99959.66;;;15.12;40.77
11672;BME280;5892;43.412;24.612;2023-02-21T07:13:38;99956.25;;;15.31;40.11
11672;BME280;5892;43.412;24.612;2023-02-21T07:16:05;99916.44;;;15.32;39.32
11672;BME280;5892;43.412;24.612;2023-02-21T07:18:32;99955.09;;;15.60;39.38
11672;BME280;5892;43.412;24.612;2023-02-21T07:20:59;99952.63;;;15.71;39.14
11672;BME280;5892;43.412;24.612;2023-02-21T07:23:27;99949.75;;;15.95;38.81
11672;BME280;5892;43.412;24.612;2023-02-21T07:25:54;99948.16;;;16.09;38.20
11672;BME280;5892;43.412;24.612;2023-02-21T07:28:21;99924.50;;;16.28;38.17
11672;BME280;5892;43.412;24.612;2023-02-21T07:30:48;99925.13;;;16.52;37.48
11672;BME280;5892;43.412;24.612;2023-02-21T07:33:15;99924.84;;;16.58;36.55
11672;BME280;5892;43.412;24.612;2023-02-21T07:35:42;99943.31;;;16.85;35.20
11672;BME280;5892;43.412;24.612;2023-02-21T07:38:08;99928.66;;;16.84;34.87
11672;BME280;5892;43.412;24.612;2023-02-21T07:40:37;99917.72;;;16.57;34.89
11672;BME280;5892;43.412;24.612;2023-02-21T07:43:03;99929.50;;;16.69;34.55
11672;BME280;5892;43.412;24.612;2023-02-21T07:45:30;99938.06;;;16.48;34.77
11672;BME280;5892;43.412;24.612;2023-02-21T07:47:57;99941.00;;;16.56;34.42
11672;BME280;5892;43.412;24.612;2023-02-21T07:50:24;99947.88;;;16.62;34.47
11672;BME280;5892;43.412;24.612;2023-02-21T07:52:51;99953.31;;;16.74;34.37
11672;BME280;5892;43.412;24.612;2023-02-21T07:55:18;99940.66;;;16.92;34.24
11672;BME280;5892;43.412;24.612;2023-02-21T07:57:47;99934.56;;;17.02;34.10
11672;BME280;5892;43.412;24.612;2023-02-21T08:00:14;99935.88;;;17.27;33.83
11672;BME280;5892;43.412;24.612;2023-02-21T08:02:45;99943.47;;;17.50;33.58
11672;BME280;5892;43.412;24.612;2023-02-21T08:05:14;99940.84;;;17.76;32.42
11672;BME280;5892;43.412;24.612;2023-02-21T08:07:42;99932.38;;;17.88;31.11
11672;BME280;5892;43.412;24.612;2023-02-21T08:10:09;99922.31;;;18.03;31.11
11672;BME280;5892;43.412;24.612;2023-02-21T08:12:36;99933.28;;;18.18;31.25
11672;BME280;5892;43.412;24.612;2023-02-21T08:15:05;99939.03;;;18.06;31.07
11672;BME280;5892;43.412;24.612;2023-02-21T08:17:32;99941.84;;;18.33;31.26
11672;BME280;5892;43.412;24.612;2023-02-21T08:19:59;99946.75;;;18.43;30.70
11672;BME280;5892;43.412;24.612;2023-02-21T08:22:26;99932.88;;;18.43;30.39
11672;BME280;5892;43.412;24.612;2023-02-21T08:24:53;99931.25;;;18.61;30.28
11672;BME280;5892;43.412;24.612;2023-02-21T08:27:19;99944.75;;;18.63;30.03
11672;BME280;5892;43.412;24.612;2023-02-21T08:29:49;99939.59;;;18.65;29.96
11672;BME280;5892;43.412;24.612;2023-02-21T08:32:18;99950.78;;;18.68;30.00
11672;BME280;5892;43.412;24.612;2023-02-21T08:34:45;99939.53;;;18.84;30.44
11672;BME280;5892;43.412;24.612;2023-02-21T08:37:12;99905.63;;;19.01;30.25
11672;BME280;5892;43.412;24.612;2023-02-21T08:39:43;99940.84;;;19.23;30.06
11672;BME280;5892;43.412;24.612;2023-02-21T08:42:10;99935.50;;;19.41;29.92
11672;BME280;5892;43.412;24.612;2023-02-21T08:44:37;99931.69;;;19.53;28.83
11672;BME280;5892;43.412;24.612;2023-02-21T08:47:04;99914.78;;;19.35;28.89
11672;BME280;5892;43.412;24.612;2023-02-21T08:49:32;99938.03;;;19.53;28.76
11672;BME280;5892;43.412;24.612;2023-02-21T08:52:01;99941.16;;;19.48;28.64
11672;BME280;5892;43.412;24.612;2023-02-21T08:54:28;99932.13;;;19.25;28.39
11672;BME280;5892;43.412;24.612;2023-02-21T08:56:55;99947.38;;;19.38;28.63
11672;BME280;5892;43.412;24.612;2023-02-21T08:59:23;99939.38;;;19.33;28.76
11672;BME280;5892;43.412;24.612;2023-02-21T09:01:50;99937.19;;;19.45;28.86
11672;BME280;5892;43.412;24.612;2023-02-21T09:04:16;99918.03;;;19.40;29.16
11672;BME280;5892;43.412;24.612;2023-02-21T09:06:45;99914.28;;;19.59;28.91
11672;BME280;5892;43.412;24.612;2023-02-21T09:09:11;99939.44;;;19.70;28.47
11672;BME280;5892;43.412;24.612;2023-02-21T09:11:38;99937.69;;;19.92;28.53
11672;BME280;5892;43.412;24.612;2023-02-21T09:14:08;99933.72;;;19.93;28.25
11672;BME280;5892;43.412;24.612;2023-02-21T09:16:35;99936.41;;;19.85;28.37
11672;BME280;5892;43.412;24.612;2023-02-21T09:19:02;99936.16;;;19.61;28.60
11672;BME280;5892;43.412;24.612;2023-02-21T09:21:31;99927.00;;;19.57;28.62
11672;BME280;5892;43.412;24.612;2023-02-21T09:24:00;99938.56;;;19.62;28.57
11672;BME280;5892;43.412;24.612;2023-02-21T09:26:28;99922.63;;;19.59;28.68
11672;BME280;5892;43.412;24.612;2023-02-21T09:28:57;99906.03;;;19.66;29.10
11672;BME280;5892;43.412;24.612;2023-02-21T09:31:24;99926.22;;;20.00;28.85
11672;BME280;5892;43.412;24.612;2023-02-21T09:33:51;99936.63;;;20.07;28.51
11672;BME280;5892;43.412;24.612;2023-02-21T09:36:17;99929.09;;;20.11;28.53
11672;BME280;5892;43.412;24.612;2023-02-21T09:38:48;99920.38;;;20.09;28.47
11672;BME280;5892;43.412;24.612;2023-02-21T09:41:17;99910.34;;;20.01;28.62
11672;BME280;5892;43.412;24.612;2023-02-21T09:43:46;99918.84;;;20.18;27.75
11672;BME280;5892;43.412;24.612;2023-02-21T09:46:17;99904.50;;;20.13;28.20
11672;BME280;5892;43.412;24.612;2023-02-21T09:48:47;99915.69;;;20.20;28.20
11672;BME280;5892;43.412;24.612;2023-02-21T09:51:15;99915.09;;;20.41;28.08
11672;BME280;5892;43.412;24.612;2023-02-21T09:53:45;99830.88;;;20.00;28.08
11672;BME280;5892;43.412;24.612;2023-02-21T09:56:20;99861.81;;;20.42;28.00
11672;BME280;5892;43.412;24.612;2023-02-21T09:58:48;99888.53;;;20.50;28.16
11672;BME280;5892;43.412;24.612;2023-02-21T10:01:23;99873.06;;;20.60;27.66
11672;BME280;5892;43.412;24.612;2023-02-21T10:03:56;99871.06;;;20.57;27.58
11672;BME280;5892;43.412;24.612;2023-02-21T10:06:35;99877.78;;;20.52;27.75
11672;BME280;5892;43.412;24.612;2023-02-21T10:09:07;99878.28;;;20.68;27.67
11672;BME280;5892;43.412;24.612;2023-02-21T10:11:48;99822.16;;;20.59;27.46
11672;BME280;5892;43.412;24.612;2023-02-21T10:14:28;99852.00;;;20.62;27.67
11672;BME280;5892;43.412;24.612;2023-02-21T10:16:58;99856.50;;;20.81;27.71
11672;BME280;5892;43.412;24.612;2023-02-21T10:19:31;99859.66;;;20.80;27.80
11672;BME280;5892;43.412;24.612;2023-02-21T10:22:09;99832.50;;;20.62;27.57
11672;BME280;5892;43.412;24.612;2023-02-21T10:24:38;99830.19;;;20.71;27.36
11672;BME280;5892;43.412;24.612;2023-02-21T10:27:12;99799.59;;;20.79;27.05
11672;BME280;5892;43.412;24.612;2023-02-21T10:29:45;99821.53;;;20.91;27.34
11672;BME280;5892;43.412;24.612;2023-02-21T10:32:16;99811.13;;;20.81;26.88
11672;BME280;5892;43.412;24.612;2023-02-21T10:34:44;99813.06;;;20.69;26.42
11672;BME280;5892;43.412;24.612;2023-02-21T10:37:25;99799.41;;;20.43;27.25
11672;BME280;5892;43.412;24.612;2023-02-21T10:39:58;99784.75;;;20.53;27.47
11672;BME280;5892;43.412;24.612;2023-02-21T10:42:32;99758.09;;;20.45;27.27
11672;BME280;5892;43.412;24.612;2023-02-21T10:45:01;99791.22;;;20.75;26.81
11672;BME280;5892;43.412;24.612;2023-02-21T10:47:35;99778.97;;;21.01;26.79
11672;BME280;5892;43.412;24.612;2023-02-21T10:50:07;99776.28;;;21.22;26.46
11672;BME280;5892;43.412;24.612;2023-02-21T10:52:37;99766.00;;;21.51;26.53
11672;BME280;5892;43.412;24.612;2023-02-21T10:55:15;99742.88;;;21.54;25.83
11672;BME280;5892;43.412;24.612;2023-02-21T10:57:45;99771.56;;;21.69;26.10
11672;BME280;5892;43.412;24.612;2023-02-21T11:00:22;99757.63;;;21.40;26.35
11672;BME280;5892;43.412;24.612;2023-02-21T11:02:53;99732.03;;;21.03;26.77
11672;BME280;5892;43.412;24.612;2023-02-21T11:05:21;99763.16;;;21.33;27.38
11672;BME280;5892;43.412;24.612;2023-02-21T11:07:58;99763.94;;;21.27;27.70
11672;BME280;5892;43.412;24.612;2023-02-21T11:10:32;99726.53;;;21.24;27.85
11672;BME280;5892;43.412;24.612;2023-02-21T11:13:11;99736.50;;;21.53;27.77
11672;BME280;5892;43.412;24.612;2023-02-21T11:15:42;99695.09;;;21.48;27.37
11672;BME280;5892;43.412;24.612;2023-02-21T11:18:14;99677.50;;;21.05;26.52
11672;BME280;5892;43.412;24.612;2023-02-21T11:20:41;99738.88;;;21.23;27.01
11672;BME280;5892;43.412;24.612;2023-02-21T11:23:20;99739.25;;;21.14;27.53
11672;BME280;5892;43.412;24.612;2023-02-21T11:25:47;99727.63;;;20.88;27.49
11672;BME280;5892;43.412;24.612;2023-02-21T11:28:21;99741.97;;;21.00;28.46
11672;BME280;5892;43.412;24.612;2023-02-21T11:30:50;99730.03;;;20.93;28.77
11672;BME280;5892;43.412;24.612;2023-02-21T11:33:29;99724.47;;;21.10;28.93
11672;BME280;5892;43.412;24.612;2023-02-21T11:36:09;99709.38;;;21.08;27.70
11672;BME280;5892;43.412;24.612;2023-02-21T11:38:38;99723.28;;;21.01;27.63
11672;BME280;5892;43.412;24.612;2023-02-21T11:41:16;99691.78;;;20.79;27.55
11672;BME280;5892;43.412;24.612;2023-02-21T11:43:49;99695.38;;;20.73;27.85
11672;BME280;5892;43.412;24.612;2023-02-21T11:46:22;99694.97;;;20.70;27.67
11672;BME280;5892;43.412;24.612;2023-02-21T11:48:57;99692.13;;;20.56;27.47
11672;BME280;5892;43.412;24.612;2023-02-21T11:51:32;99700.91;;;20.65;27.74
11672;BME280;5892;43.412;24.612;2023-02-21T11:54:00;99701.59;;;20.41;27.41
11672;BME280;5892;43.412;24.612;2023-02-21T11:56:37;99681.66;;;20.25;27.67
11672;BME280;5892;43.412;24.612;2023-02-21T11:59:18;99687.69;;;20.41;27.51
11672;BME280;5892;43.412;24.612;2023-02-21T12:01:56;99687.72;;;20.48;27.33
11672;BME280;5892;43.412;24.612;2023-02-21T12:04:47;99684.59;;;20.60;27.16
11672;BME280;5892;43.412;24.612;2023-02-21T12:07:20;99676.69;;;20.77;26.56
11672;BME280;5892;43.412;24.612;2023-02-21T12:09:55;99642.47;;;20.73;26.28
11672;BME280;5892;43.412;24.612;2023-02-21T12:12:34;99634.13;;;20.94;25.72
11672;BME280;5892;43.412;24.612;2023-02-21T12:15:17;99660.47;;;21.28;25.10
11672;BME280;5892;43.412;24.612;2023-02-21T12:23:46;99647.28;;;21.68;23.71
11672;BME280;5892;43.412;24.612;2023-02-21T12:26:25;99652.09;;;21.39;24.71
11672;BME280;5892;43.412;24.612;2023-02-21T12:29:03;99635.34;;;20.96;24.80
11672;BME280;5892;43.412;24.612;2023-02-21T12:31:47;99648.88;;;21.05;25.12
11672;BME280;5892;43.412;24.612;2023-02-21T12:34:28;99652.84;;;21.00;24.53
11672;BME280;5892;43.412;24.612;2023-02-21T12:37:05;99638.50;;;20.88;24.44
11672;BME280;5892;43.412;24.612;2023-02-21T12:39:57;99650.06;;;21.07;24.30
11672;BME280;5892;43.412;24.612;2023-02-21T12:42:48;99644.50;;;21.04;24.69
11672;BME280;5892;43.412;24.612;2023-02-21T12:45:32;99619.41;;;20.90;23.95
11672;BME280;5892;43.412;24.612;2023-02-21T12:48:10;99657.63;;;20.96;24.29
11672;BME280;5892;43.412;24.612;2023-02-21T12:50:40;99633.72;;;20.78;24.56
11672;BME280;5892;43.412;24.612;2023-02-21T12:53:11;99648.84;;;20.84;24.90
11672;BME280;5892;43.412;24.612;2023-02-21T12:55:41;99625.69;;;20.48;24.75
11672;BME280;5892;43.412;24.612;2023-02-21T12:58:17;99634.88;;;20.55;25.41
11672;BME280;5892;43.412;24.612;2023-02-21T13:00:50;99661.56;;;20.78;25.59
11672;BME280;5892;43.412;24.612;2023-02-21T13:03:41;99650.03;;;20.76;25.16
11672;BME280;5892;43.412;24.612;2023-02-21T13:06:17;99651.91;;;20.43;24.96
11672;BME280;5892;43.412;24.612;2023-02-21T13:09:05;99668.25;;;20.48;25.56
11672;BME280;5892;43.412;24.612;2023-02-21T13:11:38;99659.09;;;20.41;26.09
11672;BME280;5892;43.412;24.612;2023-02-21T13:14:09;99675.78;;;20.41;25.99
11672;BME280;5892;43.412;24.612;2023-02-21T13:16:38;99654.25;;;20.30;25.64
11672;BME280;5892;43.412;24.612;2023-02-21T13:19:09;99664.53;;;20.26;25.24
11672;BME280;5892;43.412;24.612;2023-02-21T13:21:48;99665.34;;;20.23;25.44
11672;BME280;5892;43.412;24.612;2023-02-21T13:24:52;99654.59;;;20.18;26.25
11672;BME280;5892;43.412;24.612;2023-02-21T13:27:46;99626.28;;;19.99;26.39
11672;BME280;5892;43.412;24.612;2023-02-21T13:30:21;99664.88;;;20.11;25.68
11672;BME280;5892;43.412;24.612;2023-02-21T13:32:53;99650.09;;;20.00;25.75
11672;BME280;5892;43.412;24.612;2023-02-21T13:35:27;99660.09;;;20.04;26.18
11672;BME280;5892;43.412;24.612;2023-02-21T13:37:55;99641.03;;;20.13;26.13
11672;BME280;5892;43.412;24.612;2023-02-21T13:40:25;99648.59;;;20.16;25.60
11672;BME280;5892;43.412;24.612;2023-02-21T13:43:00;99643.47;;;20.22;25.71
11672;BME280;5892;43.412;24.612;2023-02-21T13:45:28;99645.47;;;20.28;26.01
11672;BME280;5892;43.412;24.612;2023-02-21T13:48:28;99647.41;;;20.17;26.04